sensor_id;sensor_type;location;lat;lon;timestamp;P1;durP1;ratioP1;P2;durP2;ratioP2
11447;SDS011;43755;49.736;8.734;2022-10-15T00:01:42;0.40;;;0.40;;
11447;SDS011;43755;49.736;8.734;2022-10-15T00:03:43;0.65;;;0.45;;
11447;SDS011;43755;49.736;8.734;2022-10-15T00:05:47;0.30;;;0.30;;
11447;SDS011;43755;49.736;8.734;2022-10-15T00:07:48;1.48;;;0.40;;
11447;SDS011;43755;49.736;8.734;2022-10-15T00:09:49;0.40;;;0.40;;
11447;SDS011;43755;49.736;8.734;2022-10-15T00:11:51;1.45;;;0.32;;
11447;SDS011;43755;49.736;8.734;2022-10-15T00:13:53;0.45;;;0.45;;
11447;SDS011;43755;49.736;8.734;2022-10-15T00:15:55;0.40;;;0.40;;
11447;SDS011;43755;49.736;8.734;2022-10-15T00:17:56;0.30;;;0.30;;
11447;SDS011;43755;49.736;8.734;2022-10-15T00:19:58;0.30;;;0.30;;
11447;SDS011;43755;49.736;8.734;2022-10-15T00:22:01;0.20;;;0.20;;
11447;SDS011;43755;49.736;8.734;2022-10-15T00:24:02;0.30;;;0.30;;
11447;SDS011;43755;49.736;8.734;2022-10-15T00:26:05;0.32;;;0.32;;
11447;SDS011;43755;49.736;8.734;2022-10-15T00:28:08;1.27;;;0.50;;
11447;SDS011;43755;49.736;8.734;2022-10-15T00:30:09;1.20;;;0.30;;
11447;SDS011;43755;49.736;8.734;2022-10-15T00:32:11;0.32;;;0.32;;
11447;SDS011;43755;49.736;8.734;2022-10-15T00:34:13;0.38;;;0.28;;
11447;SDS011;43755;49.736;8.734;2022-10-15T00:36:15;0.30;;;0.30;;
11447;SDS011;43755;49.736;8.734;2022-10-15T00:38:20;0.40;;;0.40;;
11447;SDS011;43755;49.736;8.734;2022-10-15T00:40:21;0.30;;;0.30;;
11447;SDS011;43755;49.736;8.734;2022-10-15T00:42:22;0.70;;;0.40;;
11447;SDS011;43755;49.736;8.734;2022-10-15T00:46:49;0.57;;;0.57;;
11447;SDS011;43755;49.736;8.734;2022-10-15T00:48:54;0.63;;;0.63;;
11447;SDS011;43755;49.736;8.734;2022-10-15T00:50:58;0.47;;;0.47;;
11447;SDS011;43755;49.736;8.734;2022-10-15T00:53:05;0.50;;;0.50;;
11447;SDS011;43755;49.736;8.734;2022-10-15T00:55:11;0.50;;;0.50;;
11447;SDS011;43755;49.736;8.734;2022-10-15T00:57:15;0.50;;;0.50;;
11447;SDS011;43755;49.736;8.734;2022-10-15T00:59:17;0.50;;;0.50;;
11447;SDS011;43755;49.736;8.734;2022-10-15T01:01:22;0.68;;;0.60;;
11447;SDS011;43755;49.736;8.734;2022-10-15T01:03:25;0.60;;;0.60;;
11447;SDS011;43755;49.736;8.734;2022-10-15T01:05:27;0.45;;;0.45;;
11447;SDS011;43755;49.736;8.734;2022-10-15T01:07:28;0.93;;;0.50;;
11447;SDS011;43755;49.736;8.734;2022-10-15T01:09:30;1.27;;;0.60;;
11447;SDS011;43755;49.736;8.734;2022-10-15T01:11:36;3.33;;;0.95;;
11447;SDS011;43755;49.736;8.734;2022-10-15T01:13:43;0.63;;;0.63;;
11447;SDS011;43755;49.736;8.734;2022-10-15T01:15:54;1.38;;;0.75;;
11447;SDS011;43755;49.736;8.734;2022-10-15T01:18:01;0.77;;;0.77;;
11447;SDS011;43755;49.736;8.734;2022-10-15T01:20:14;0.90;;;0.90;;
11447;SDS011;43755;49.736;8.734;2022-10-15T01:22:28;0.85;;;0.85;;
11447;SDS011;43755;49.736;8.734;2022-10-15T01:24:43;1.90;;;0.80;;
11447;SDS011;43755;49.736;8.734;2022-10-15T01:27:00;0.90;;;0.90;;
11447;SDS011;43755;49.736;8.734;2022-10-15T01:29:22;0.80;;;0.80;;
11447;SDS011;43755;49.736;8.734;2022-10-15T01:31:42;0.90;;;0.90;;
11447;SDS011;43755;49.736;8.734;2022-10-15T01:33:53;0.80;;;0.80;;
11447;SDS011;43755;49.736;8.734;2022-10-15T01:36:03;0.60;;;0.60;;
11447;SDS011;43755;49.736;8.734;2022-10-15T01:38:19;1.00;;;0.75;;
11447;SDS011;43755;49.736;8.734;2022-10-15T01:40:29;1.13;;;0.80;;
11447;SDS011;43755;49.736;8.734;2022-10-15T01:42:37;0.70;;;0.70;;
11447;SDS011;43755;49.736;8.734;2022-10-15T01:44:45;1.20;;;0.80;;
11447;SDS011;43755;49.736;8.734;2022-10-15T01:46:52;1.70;;;0.75;;
11447;SDS011;43755;49.736;8.734;2022-10-15T01:48:58;1.67;;;0.60;;
11447;SDS011;43755;49.736;8.734;2022-10-15T01:51:03;0.80;;;0.80;;
11447;SDS011;43755;49.736;8.734;2022-10-15T01:53:07;1.10;;;1.10;;
11447;SDS011;43755;49.736;8.734;2022-10-15T01:55:11;1.30;;;1.30;;
11447;SDS011;43755;49.736;8.734;2022-10-15T01:57:15;1.65;;;1.65;;
11447;SDS011;43755;49.736;8.734;2022-10-15T01:59:21;1.60;;;1.60;;
11447;SDS011;43755;49.736;8.734;2022-10-15T02:01:24;1.40;;;1.40;;
11447;SDS011;43755;49.736;8.734;2022-10-15T02:03:27;1.55;;;1.55;;
11447;SDS011;43755;49.736;8.734;2022-10-15T02:05:29;1.30;;;1.30;;
11447;SDS011;43755;49.736;8.734;2022-10-15T02:07:36;1.52;;;1.42;;
11447;SDS011;43755;49.736;8.734;2022-10-15T02:09:44;1.40;;;1.30;;
11447;SDS011;43755;49.736;8.734;2022-10-15T02:11:55;1.50;;;1.50;;
11447;SDS011;43755;49.736;8.734;2022-10-15T02:14:05;1.40;;;1.40;;
11447;SDS011;43755;49.736;8.734;2022-10-15T02:16:12;1.30;;;1.30;;
11447;SDS011;43755;49.736;8.734;2022-10-15T02:18:24;1.40;;;1.40;;
11447;SDS011;43755;49.736;8.734;2022-10-15T02:20:38;1.42;;;1.42;;
11447;SDS011;43755;49.736;8.734;2022-10-15T02:22:45;1.42;;;1.20;;
11447;SDS011;43755;49.736;8.734;2022-10-15T02:24:51;1.10;;;1.10;;
11447;SDS011;43755;49.736;8.734;2022-10-15T02:26:56;0.95;;;0.95;;
11447;SDS011;43755;49.736;8.734;2022-10-15T02:28:59;0.82;;;0.82;;
11447;SDS011;43755;49.736;8.734;2022-10-15T02:31:03;0.88;;;0.88;;
11447;SDS011;43755;49.736;8.734;2022-10-15T02:33:05;1.05;;;1.05;;
11447;SDS011;43755;49.736;8.734;2022-10-15T02:35:10;1.15;;;1.00;;
11447;SDS011;43755;49.736;8.734;2022-10-15T02:37:12;1.10;;;1.10;;
11447;SDS011;43755;49.736;8.734;2022-10-15T02:39:16;1.50;;;1.50;;
11447;SDS011;43755;49.736;8.734;2022-10-15T02:41:21;1.52;;;1.42;;
11447;SDS011;43755;49.736;8.734;2022-10-15T02:43:23;1.63;;;1.63;;
11447;SDS011;43755;49.736;8.734;2022-10-15T02:45:24;2.00;;;1.90;;
11447;SDS011;43755;49.736;8.734;2022-10-15T02:47:26;2.92;;;2.70;;
11447;SDS011;43755;49.736;8.734;2022-10-15T02:49:27;2.72;;;2.63;;
11447;SDS011;43755;49.736;8.734;2022-10-15T02:51:31;3.55;;;3.35;;
11447;SDS011;43755;49.736;8.734;2022-10-15T02:53:33;3.65;;;3.45;;
11447;SDS011;43755;49.736;8.734;2022-10-15T02:55:34;3.40;;;3.10;;
11447;SDS011;43755;49.736;8.734;2022-10-15T02:57:36;3.78;;;3.58;;
11447;SDS011;43755;49.736;8.734;2022-10-15T02:59:37;3.92;;;3.72;;
11447;SDS011;43755;49.736;8.734;2022-10-15T03:01:39;4.78;;;4.47;;
11447;SDS011;43755;49.736;8.734;2022-10-15T03:03:40;5.90;;;5.50;;
11447;SDS011;43755;49.736;8.734;2022-10-15T03:05:42;6.13;;;5.72;;
11447;SDS011;43755;49.736;8.734;2022-10-15T03:07:46;7.10;;;6.50;;
11447;SDS011;43755;49.736;8.734;2022-10-15T03:09:47;7.10;;;6.60;;
11447;SDS011;43755;49.736;8.734;2022-10-15T03:11:48;12.07;;;7.30;;
11447;SDS011;43755;49.736;8.734;2022-10-15T03:13:50;15.48;;;7.15;;
11447;SDS011;43755;49.736;8.734;2022-10-15T03:15:51;12.10;;;6.70;;
11447;SDS011;43755;49.736;8.734;2022-10-15T03:17:53;31.08;;;7.18;;
11447;SDS011;43755;49.736;8.734;2022-10-15T03:19:54;12.13;;;6.60;;
11447;SDS011;43755;49.736;8.734;2022-10-15T03:21:55;7.55;;;6.68;;
11447;SDS011;43755;49.736;8.734;2022-10-15T03:23:58;8.43;;;6.72;;
11447;SDS011;43755;49.736;8.734;2022-10-15T03:26:00;18.23;;;7.38;;
11447;SDS011;43755;49.736;8.734;2022-10-15T03:28:01;22.02;;;6.47;;
11447;SDS011;43755;49.736;8.734;2022-10-15T03:30:03;37.30;;;8.15;;
11447;SDS011;43755;49.736;8.734;2022-10-15T03:32:05;30.33;;;7.70;;
11447;SDS011;43755;49.736;8.734;2022-10-15T03:34:06;17.15;;;7.38;;
11447;SDS011;43755;49.736;8.734;2022-10-15T03:36:08;40.55;;;8.38;;
11447;SDS011;43755;49.736;8.734;2022-10-15T03:38:10;33.10;;;7.97;;
11447;SDS011;43755;49.736;8.734;2022-10-15T03:40:13;48.70;;;9.25;;
11447;SDS011;43755;49.736;8.734;2022-10-15T03:42:14;27.67;;;10.07;;
11447;SDS011;43755;49.736;8.734;2022-10-15T03:44:15;22.83;;;9.77;;
11447;SDS011;43755;49.736;8.734;2022-10-15T03:46:17;51.63;;;10.25;;
11447;SDS011;43755;49.736;8.734;2022-10-15T03:48:18;25.13;;;8.93;;
11447;SDS011;43755;49.736;8.734;2022-10-15T03:50:20;29.98;;;9.05;;
11447;SDS011;43755;49.736;8.734;2022-10-15T03:52:22;8.82;;;7.63;;
11447;SDS011;43755;49.736;8.734;2022-10-15T03:54:23;8.15;;;7.35;;
11447;SDS011;43755;49.736;8.734;2022-10-15T03:56:26;7.07;;;6.40;;
11447;SDS011;43755;49.736;8.734;2022-10-15T03:58:27;7.40;;;6.90;;
11447;SDS011;43755;49.736;8.734;2022-10-15T04:00:28;9.13;;;7.60;;
11447;SDS011;43755;49.736;8.734;2022-10-15T04:02:30;7.40;;;6.80;;
11447;SDS011;43755;49.736;8.734;2022-10-15T04:04:32;7.38;;;6.68;;
11447;SDS011;43755;49.736;8.734;2022-10-15T04:06:33;6.70;;;6.28;;
11447;SDS011;43755;49.736;8.734;2022-10-15T04:08:34;7.15;;;6.55;;
11447;SDS011;43755;49.736;8.734;2022-10-15T04:10:36;8.20;;;7.60;;
11447;SDS011;43755;49.736;8.734;2022-10-15T04:12:39;7.70;;;7.10;;
11447;SDS011;43755;49.736;8.734;2022-10-15T04:14:40;7.50;;;6.88;;
11447;SDS011;43755;49.736;8.734;2022-10-15T04:16:41;35.80;;;8.77;;
11447;SDS011;43755;49.736;8.734;2022-10-15T04:18:43;78.40;;;9.10;;
11447;SDS011;43755;49.736;8.734;2022-10-15T04:20:44;29.38;;;7.57;;
11447;SDS011;43755;49.736;8.734;2022-10-15T04:22:46;174.07;;;10.27;;
11447;SDS011;43755;49.736;8.734;2022-10-15T04:24:47;214.02;;;11.18;;
11447;SDS011;43755;49.736;8.734;2022-10-15T04:26:49;206.57;;;11.60;;
11447;SDS011;43755;49.736;8.734;2022-10-15T04:28:51;155.73;;;10.88;;
11447;SDS011;43755;49.736;8.734;2022-10-15T04:30:54;148.50;;;10.20;;
11447;SDS011;43755;49.736;8.734;2022-10-15T04:32:56;158.13;;;10.85;;
11447;SDS011;43755;49.736;8.734;2022-10-15T04:34:58;33.58;;;8.88;;
11447;SDS011;43755;49.736;8.734;2022-10-15T04:36:59;67.28;;;8.68;;
11447;SDS011;43755;49.736;8.734;2022-10-15T04:39:01;9.23;;;7.15;;
11447;SDS011;43755;49.736;8.734;2022-10-15T04:41:03;20.58;;;7.50;;
11447;SDS011;43755;49.736;8.734;2022-10-15T04:43:06;7.47;;;6.88;;
11447;SDS011;43755;49.736;8.734;2022-10-15T04:45:09;7.22;;;6.63;;
11447;SDS011;43755;49.736;8.734;2022-10-15T04:47:10;7.20;;;6.22;;
11447;SDS011;43755;49.736;8.734;2022-10-15T04:49:12;7.93;;;7.30;;
11447;SDS011;43755;49.736;8.734;2022-10-15T04:51:15;6.80;;;6.30;;
11447;SDS011;43755;49.736;8.734;2022-10-15T04:53:18;6.85;;;6.25;;
11447;SDS011;43755;49.736;8.734;2022-10-15T04:55:19;10.20;;;7.38;;
11447;SDS011;43755;49.736;8.734;2022-10-15T04:57:21;9.05;;;7.82;;
11447;SDS011;43755;49.736;8.734;2022-10-15T04:59:22;7.70;;;7.00;;
11447;SDS011;43755;49.736;8.734;2022-10-15T05:01:25;8.52;;;7.63;;
11447;SDS011;43755;49.736;8.734;2022-10-15T05:03:26;13.13;;;8.02;;
11447;SDS011;43755;49.736;8.734;2022-10-15T05:05:28;8.80;;;7.97;;
11447;SDS011;43755;49.736;8.734;2022-10-15T05:07:29;7.90;;;7.28;;
11447;SDS011;43755;49.736;8.734;2022-10-15T05:09:31;6.88;;;6.38;;
11447;SDS011;43755;49.736;8.734;2022-10-15T05:11:34;5.57;;;5.07;;
11447;SDS011;43755;49.736;8.734;2022-10-15T05:13:36;6.60;;;6.10;;
11447;SDS011;43755;49.736;8.734;2022-10-15T05:15:38;11.52;;;8.00;;
11447;SDS011;43755;49.736;8.734;2022-10-15T05:17:41;47.80;;;9.02;;
11447;SDS011;43755;49.736;8.734;2022-10-15T05:19:42;9.10;;;8.02;;
11447;SDS011;43755;49.736;8.734;2022-10-15T05:21:43;7.75;;;7.05;;
11447;SDS011;43755;49.736;8.734;2022-10-15T05:23:45;8.30;;;7.60;;
11447;SDS011;43755;49.736;8.734;2022-10-15T05:25:49;12.05;;;8.32;;
11447;SDS011;43755;49.736;8.734;2022-10-15T05:27:50;10.30;;;7.10;;
11447;SDS011;43755;49.736;8.734;2022-10-15T05:29:51;7.80;;;6.95;;
11447;SDS011;43755;49.736;8.734;2022-10-15T05:31:53;10.50;;;7.95;;
11447;SDS011;43755;49.736;8.734;2022-10-15T05:33:56;10.10;;;8.95;;
11447;SDS011;43755;49.736;8.734;2022-10-15T05:36:06;10.27;;;9.30;;
11447;SDS011;43755;49.736;8.734;2022-10-15T05:38:08;8.82;;;7.97;;
11447;SDS011;43755;49.736;8.734;2022-10-15T05:40:10;9.70;;;8.75;;
11447;SDS011;43755;49.736;8.734;2022-10-15T05:42:12;9.20;;;8.40;;
11447;SDS011;43755;49.736;8.734;2022-10-15T05:44:13;9.35;;;8.50;;
11447;SDS011;43755;49.736;8.734;2022-10-15T05:46:15;8.00;;;7.30;;
11447;SDS011;43755;49.736;8.734;2022-10-15T05:48:17;8.50;;;7.70;;
11447;SDS011;43755;49.736;8.734;2022-10-15T05:50:19;8.07;;;7.13;;
11447;SDS011;43755;49.736;8.734;2022-10-15T05:52:21;8.05;;;7.35;;
11447;SDS011;43755;49.736;8.734;2022-10-15T05:54:22;8.35;;;7.55;;
11447;SDS011;43755;49.736;8.734;2022-10-15T05:56:24;7.00;;;6.40;;
11447;SDS011;43755;49.736;8.734;2022-10-15T05:58:26;9.05;;;8.25;;
11447;SDS011;43755;49.736;8.734;2022-10-15T06:00:29;9.32;;;8.63;;
11447;SDS011;43755;49.736;8.734;2022-10-15T06:02:31;7.35;;;6.75;;
11447;SDS011;43755;49.736;8.734;2022-10-15T06:04:32;6.90;;;6.40;;
11447;SDS011;43755;49.736;8.734;2022-10-15T06:06:35;7.68;;;7.07;;
11447;SDS011;43755;49.736;8.734;2022-10-15T06:08:36;8.98;;;8.27;;
11447;SDS011;43755;49.736;8.734;2022-10-15T06:10:38;9.25;;;8.45;;
11447;SDS011;43755;49.736;8.734;2022-10-15T06:12:39;6.35;;;5.93;;
11447;SDS011;43755;49.736;8.734;2022-10-15T06:14:41;7.25;;;6.65;;
11447;SDS011;43755;49.736;8.734;2022-10-15T06:16:43;7.22;;;6.65;;
11447;SDS011;43755;49.736;8.734;2022-10-15T06:18:44;6.18;;;5.57;;
11447;SDS011;43755;49.736;8.734;2022-10-15T06:20:49;5.82;;;5.40;;
11447;SDS011;43755;49.736;8.734;2022-10-15T06:22:56;6.93;;;6.22;;
11447;SDS011;43755;49.736;8.734;2022-10-15T06:24:58;7.82;;;6.30;;
11447;SDS011;43755;49.736;8.734;2022-10-15T06:26:59;6.70;;;6.20;;
11447;SDS011;43755;49.736;8.734;2022-10-15T06:29:01;6.20;;;5.70;;
11447;SDS011;43755;49.736;8.734;2022-10-15T06:31:02;6.47;;;5.97;;
11447;SDS011;43755;49.736;8.734;2022-10-15T06:33:05;5.60;;;5.00;;
11447;SDS011;43755;49.736;8.734;2022-10-15T06:35:06;4.75;;;4.45;;
11447;SDS011;43755;49.736;8.734;2022-10-15T06:37:08;4.38;;;4.07;;
11447;SDS011;43755;49.736;8.734;2022-10-15T06:39:11;4.93;;;4.63;;
11447;SDS011;43755;49.736;8.734;2022-10-15T06:41:12;4.28;;;3.95;;
11447;SDS011;43755;49.736;8.734;2022-10-15T06:43:14;5.03;;;4.60;;
11447;SDS011;43755;49.736;8.734;2022-10-15T06:45:15;4.90;;;4.50;;
11447;SDS011;43755;49.736;8.734;2022-10-15T06:47:16;4.82;;;4.53;;
11447;SDS011;43755;49.736;8.734;2022-10-15T06:49:18;5.15;;;4.85;;
11447;SDS011;43755;49.736;8.734;2022-10-15T06:51:19;4.70;;;4.43;;
11447;SDS011;43755;49.736;8.734;2022-10-15T06:53:21;4.47;;;4.28;;
11447;SDS011;43755;49.736;8.734;2022-10-15T06:55:23;4.43;;;4.22;;
11447;SDS011;43755;49.736;8.734;2022-10-15T06:57:26;4.13;;;3.83;;
11447;SDS011;43755;49.736;8.734;2022-10-15T06:59:27;3.97;;;3.78;;
11447;SDS011;43755;49.736;8.734;2022-10-15T07:01:29;4.00;;;3.70;;
11447;SDS011;43755;49.736;8.734;2022-10-15T07:03:31;4.60;;;3.63;;
11447;SDS011;43755;49.736;8.734;2022-10-15T07:05:32;3.75;;;3.45;;
11447;SDS011;43755;49.736;8.734;2022-10-15T07:07:34;4.00;;;3.65;;
11447;SDS011;43755;49.736;8.734;2022-10-15T07:09:36;3.50;;;3.25;;
11447;SDS011;43755;49.736;8.734;2022-10-15T07:11:38;3.78;;;3.15;;
11447;SDS011;43755;49.736;8.734;2022-10-15T07:13:40;2.83;;;2.60;;
11447;SDS011;43755;49.736;8.734;2022-10-15T07:15:43;2.97;;;2.17;;
11447;SDS011;43755;49.736;8.734;2022-10-15T07:17:45;2.40;;;2.30;;
11447;SDS011;43755;49.736;8.734;2022-10-15T07:19:48;2.72;;;2.53;;
11447;SDS011;43755;49.736;8.734;2022-10-15T07:21:49;2.78;;;2.55;;
11447;SDS011;43755;49.736;8.734;2022-10-15T07:23:51;2.40;;;2.30;;
11447;SDS011;43755;49.736;8.734;2022-10-15T07:25:52;2.92;;;2.58;;
11447;SDS011;43755;49.736;8.734;2022-10-15T07:27:55;2.58;;;2.40;;
11447;SDS011;43755;49.736;8.734;2022-10-15T07:29:57;2.40;;;2.30;;
11447;SDS011;43755;49.736;8.734;2022-10-15T07:31:58;2.55;;;2.35;;
11447;SDS011;43755;49.736;8.734;2022-10-15T07:34:00;2.05;;;1.95;;
11447;SDS011;43755;49.736;8.734;2022-10-15T07:36:02;2.55;;;2.33;;
11447;SDS011;43755;49.736;8.734;2022-10-15T07:38:05;2.33;;;2.20;;
11447;SDS011;43755;49.736;8.734;2022-10-15T07:40:06;2.47;;;2.38;;
11447;SDS011;43755;49.736;8.734;2022-10-15T07:42:08;2.83;;;2.63;;
11447;SDS011;43755;49.736;8.734;2022-10-15T07:44:11;2.67;;;2.47;;
11447;SDS011;43755;49.736;8.734;2022-10-15T07:46:12;2.72;;;2.63;;
11447;SDS011;43755;49.736;8.734;2022-10-15T07:48:14;3.35;;;2.83;;
11447;SDS011;43755;49.736;8.734;2022-10-15T07:50:15;3.10;;;2.80;;
11447;SDS011;43755;49.736;8.734;2022-10-15T07:52:17;3.25;;;2.65;;
11447;SDS011;43755;49.736;8.734;2022-10-15T07:54:18;3.03;;;2.80;;
11447;SDS011;43755;49.736;8.734;2022-10-15T07:56:20;3.20;;;3.00;;
11447;SDS011;43755;49.736;8.734;2022-10-15T07:58:21;3.00;;;2.80;;
11447;SDS011;43755;49.736;8.734;2022-10-15T08:00:24;3.10;;;2.83;;
11447;SDS011;43755;49.736;8.734;2022-10-15T08:02:26;3.67;;;3.47;;
11447;SDS011;43755;49.736;8.734;2022-10-15T08:04:27;3.70;;;3.50;;
11447;SDS011;43755;49.736;8.734;2022-10-15T08:06:30;3.70;;;3.50;;
11447;SDS011;43755;49.736;8.734;2022-10-15T08:08:32;4.05;;;3.83;;
11447;SDS011;43755;49.736;8.734;2022-10-15T08:10:34;4.65;;;4.22;;
11447;SDS011;43755;49.736;8.734;2022-10-15T08:12:36;4.75;;;4.45;;
11447;SDS011;43755;49.736;8.734;2022-10-15T08:14:37;5.30;;;4.90;;
11447;SDS011;43755;49.736;8.734;2022-10-15T08:16:40;6.22;;;5.75;;
11447;SDS011;43755;49.736;8.734;2022-10-15T08:18:42;5.63;;;5.13;;
11447;SDS011;43755;49.736;8.734;2022-10-15T08:20:43;5.50;;;5.00;;
11447;SDS011;43755;49.736;8.734;2022-10-15T08:22:45;4.57;;;4.28;;
11447;SDS011;43755;49.736;8.734;2022-10-15T08:24:46;4.30;;;3.90;;
11447;SDS011;43755;49.736;8.734;2022-10-15T08:26:47;3.80;;;3.60;;
11447;SDS011;43755;49.736;8.734;2022-10-15T08:28:49;3.58;;;3.28;;
11447;SDS011;43755;49.736;8.734;2022-10-15T08:30:50;4.22;;;3.60;;
11447;SDS011;43755;49.736;8.734;2022-10-15T08:32:53;3.33;;;3.03;;
11447;SDS011;43755;49.736;8.734;2022-10-15T08:34:54;3.15;;;2.95;;
11447;SDS011;43755;49.736;8.734;2022-10-15T08:36:56;3.10;;;2.90;;
11447;SDS011;43755;49.736;8.734;2022-10-15T08:38:57;3.30;;;3.10;;
11447;SDS011;43755;49.736;8.734;2022-10-15T08:40:59;3.30;;;3.00;;
11447;SDS011;43755;49.736;8.734;2022-10-15T08:43:02;3.38;;;3.17;;
11447;SDS011;43755;49.736;8.734;2022-10-15T08:45:05;3.40;;;2.60;;
11447;SDS011;43755;49.736;8.734;2022-10-15T08:47:24;2.45;;;2.35;;
11447;SDS011;43755;49.736;8.734;2022-10-15T08:49:33;2.92;;;2.50;;
11447;SDS011;43755;49.736;8.734;2022-10-15T08:51:43;2.50;;;2.30;;
11447;SDS011;43755;49.736;8.734;2022-10-15T08:53:48;2.90;;;2.70;;
11447;SDS011;43755;49.736;8.734;2022-10-15T08:55:53;2.70;;;2.50;;
11447;SDS011;43755;49.736;8.734;2022-10-15T08:57:59;2.45;;;2.35;;
11447;SDS011;43755;49.736;8.734;2022-10-15T09:00:15;2.65;;;2.42;;
11447;SDS011;43755;49.736;8.734;2022-10-15T09:02:20;4.00;;;1.92;;
11447;SDS011;43755;49.736;8.734;2022-10-15T09:04:25;2.05;;;1.95;;
11447;SDS011;43755;49.736;8.734;2022-10-15T09:06:33;2.00;;;1.67;;
11447;SDS011;43755;49.736;8.734;2022-10-15T09:08:37;1.80;;;1.70;;
11447;SDS011;43755;49.736;8.734;2022-10-15T09:10:47;1.52;;;1.45;;
11447;SDS011;43755;49.736;8.734;2022-10-15T09:12:53;2.25;;;1.55;;
11447;SDS011;43755;49.736;8.734;2022-10-15T09:15:00;1.90;;;1.80;;
11447;SDS011;43755;49.736;8.734;2022-10-15T09:17:04;2.08;;;1.65;;
11447;SDS011;43755;49.736;8.734;2022-10-15T09:19:18;2.72;;;1.75;;
11447;SDS011;43755;49.736;8.734;2022-10-15T09:21:21;1.75;;;1.65;;
11447;SDS011;43755;49.736;8.734;2022-10-15T09:23:26;1.98;;;1.80;;
11447;SDS011;43755;49.736;8.734;2022-10-15T09:25:31;2.15;;;1.85;;
11447;SDS011;43755;49.736;8.734;2022-10-15T09:27:36;2.10;;;1.33;;
11447;SDS011;43755;49.736;8.734;2022-10-15T09:29:40;1.60;;;1.50;;
11447;SDS011;43755;49.736;8.734;2022-10-15T09:31:48;1.30;;;1.30;;
11447;SDS011;43755;49.736;8.734;2022-10-15T09:33:54;1.13;;;1.13;;
11447;SDS011;43755;49.736;8.734;2022-10-15T09:36:02;1.52;;;1.35;;
11447;SDS011;43755;49.736;8.734;2022-10-15T09:38:23;1.73;;;1.20;;
11447;SDS011;43755;49.736;8.734;2022-10-15T09:40:38;1.10;;;1.10;;
11447;SDS011;43755;49.736;8.734;2022-10-15T09:42:51;1.20;;;1.10;;
11447;SDS011;43755;49.736;8.734;2022-10-15T09:44:53;1.58;;;1.48;;
11447;SDS011;43755;49.736;8.734;2022-10-15T09:46:57;1.30;;;1.30;;
11447;SDS011;43755;49.736;8.734;2022-10-15T09:49:02;1.67;;;1.58;;
11447;SDS011;43755;49.736;8.734;2022-10-15T09:51:10;1.50;;;1.40;;
11447;SDS011;43755;49.736;8.734;2022-10-15T09:53:23;2.55;;;1.67;;
11447;SDS011;43755;49.736;8.734;2022-10-15T09:55:34;1.40;;;1.30;;
11447;SDS011;43755;49.736;8.734;2022-10-15T09:57:41;2.28;;;1.70;;
11447;SDS011;43755;49.736;8.734;2022-10-15T09:59:54;2.20;;;1.48;;
11447;SDS011;43755;49.736;8.734;2022-10-15T10:01:58;2.25;;;1.80;;
11447;SDS011;43755;49.736;8.734;2022-10-15T10:04:08;4.47;;;2.28;;
11447;SDS011;43755;49.736;8.734;2022-10-15T10:06:12;2.50;;;2.30;;
11447;SDS011;43755;49.736;8.734;2022-10-15T10:08:16;4.22;;;2.90;;
11447;SDS011;43755;49.736;8.734;2022-10-15T10:10:23;3.53;;;3.28;;
11447;SDS011;43755;49.736;8.734;2022-10-15T10:12:28;3.90;;;3.70;;
11447;SDS011;43755;49.736;8.734;2022-10-15T10:14:32;4.25;;;3.97;;
11447;SDS011;43755;49.736;8.734;2022-10-15T10:16:36;3.80;;;3.60;;
11447;SDS011;43755;49.736;8.734;2022-10-15T10:19:08;3.35;;;3.15;;
11447;SDS011;43755;49.736;8.734;2022-10-15T10:21:19;3.20;;;3.00;;
11447;SDS011;43755;49.736;8.734;2022-10-15T10:23:22;3.50;;;3.22;;
11447;SDS011;43755;49.736;8.734;2022-10-15T10:25:31;3.28;;;3.08;;
11447;SDS011;43755;49.736;8.734;2022-10-15T10:27:35;3.00;;;2.80;;
11447;SDS011;43755;49.736;8.734;2022-10-15T10:29:37;3.00;;;2.80;;
11447;SDS011;43755;49.736;8.734;2022-10-15T10:31:40;3.05;;;2.80;;
11447;SDS011;43755;49.736;8.734;2022-10-15T10:33:44;3.80;;;2.50;;
11447;SDS011;43755;49.736;8.734;2022-10-15T10:35:48;2.60;;;2.50;;
11447;SDS011;43755;49.736;8.734;2022-10-15T10:37:51;2.95;;;2.63;;
11447;SDS011;43755;49.736;8.734;2022-10-15T10:39:54;2.67;;;2.47;;
11447;SDS011;43755;49.736;8.734;2022-10-15T10:41:58;2.72;;;2.63;;
11447;SDS011;43755;49.736;8.734;2022-10-15T10:44:01;4.00;;;2.53;;
11447;SDS011;43755;49.736;8.734;2022-10-15T10:46:03;3.03;;;2.83;;
11447;SDS011;43755;49.736;8.734;2022-10-15T10:48:17;2.75;;;2.65;;
11447;SDS011;43755;49.736;8.734;2022-10-15T10:50:29;3.60;;;3.35;;
11447;SDS011;43755;49.736;8.734;2022-10-15T10:52:33;3.35;;;3.20;;
11447;SDS011;43755;49.736;8.734;2022-10-15T10:54:36;3.30;;;3.10;;
11447;SDS011;43755;49.736;8.734;2022-10-15T10:56:38;3.90;;;3.20;;
11447;SDS011;43755;49.736;8.734;2022-10-15T10:58:43;4.18;;;3.63;;
11447;SDS011;43755;49.736;8.734;2022-10-15T11:00:46;3.80;;;3.38;;
11447;SDS011;43755;49.736;8.734;2022-10-15T11:02:48;3.60;;;3.40;;
11447;SDS011;43755;49.736;8.734;2022-10-15T11:04:51;2.90;;;2.72;;
11447;SDS011;43755;49.736;8.734;2022-10-15T11:06:57;2.50;;;2.40;;
11447;SDS011;43755;49.736;8.734;2022-10-15T11:09:09;2.70;;;2.50;;
11447;SDS011;43755;49.736;8.734;2022-10-15T11:11:21;2.20;;;2.10;;
11447;SDS011;43755;49.736;8.734;2022-10-15T11:13:33;2.20;;;2.10;;
11447;SDS011;43755;49.736;8.734;2022-10-15T11:15:48;1.65;;;1.60;;
11447;SDS011;43755;49.736;8.734;2022-10-15T11:18:01;1.80;;;1.70;;
11447;SDS011;43755;49.736;8.734;2022-10-15T11:20:12;1.90;;;1.80;;
11447;SDS011;43755;49.736;8.734;2022-10-15T11:22:25;1.67;;;1.60;;
11447;SDS011;43755;49.736;8.734;2022-10-15T11:24:42;1.20;;;1.10;;
11447;SDS011;43755;49.736;8.734;2022-10-15T11:26:54;1.50;;;1.40;;
11447;SDS011;43755;49.736;8.734;2022-10-15T11:29:04;1.40;;;1.30;;
11447;SDS011;43755;49.736;8.734;2022-10-15T11:31:15;2.30;;;1.83;;
11447;SDS011;43755;49.736;8.734;2022-10-15T11:33:29;1.77;;;1.48;;
11447;SDS011;43755;49.736;8.734;2022-10-15T11:35:42;1.30;;;1.20;;
11447;SDS011;43755;49.736;8.734;2022-10-15T11:37:50;1.20;;;1.20;;
11447;SDS011;43755;49.736;8.734;2022-10-15T11:40:00;1.60;;;1.50;;
11447;SDS011;43755;49.736;8.734;2022-10-15T11:42:19;1.50;;;1.40;;
11447;SDS011;43755;49.736;8.734;2022-10-15T11:44:29;1.33;;;1.20;;
11447;SDS011;43755;49.736;8.734;2022-10-15T11:46:41;1.15;;;1.08;;
11447;SDS011;43755;49.736;8.734;2022-10-15T11:48:54;1.15;;;1.10;;
11447;SDS011;43755;49.736;8.734;2022-10-15T11:51:05;1.40;;;1.35;;
11447;SDS011;43755;49.736;8.734;2022-10-15T11:53:24;1.48;;;1.30;;
11447;SDS011;43755;49.736;8.734;2022-10-15T11:55:38;3.85;;;1.17;;
11447;SDS011;43755;49.736;8.734;2022-10-15T11:57:42;1.10;;;1.10;;
11447;SDS011;43755;49.736;8.734;2022-10-15T11:59:46;1.17;;;1.08;;
11447;SDS011;43755;49.736;8.734;2022-10-15T12:01:56;1.30;;;1.00;;
11447;SDS011;43755;49.736;8.734;2022-10-15T12:04:01;1.58;;;0.93;;
11447;SDS011;43755;49.736;8.734;2022-10-15T12:06:06;1.40;;;0.90;;
11447;SDS011;43755;49.736;8.734;2022-10-15T12:08:14;4.35;;;1.08;;
11447;SDS011;43755;49.736;8.734;2022-10-15T12:10:20;2.60;;;1.20;;
11447;SDS011;43755;49.736;8.734;2022-10-15T12:12:36;1.23;;;1.10;;
11447;SDS011;43755;49.736;8.734;2022-10-15T12:14:42;3.60;;;1.10;;
11447;SDS011;43755;49.736;8.734;2022-10-15T12:16:52;2.08;;;1.17;;
11447;SDS011;43755;49.736;8.734;2022-10-15T12:19:06;1.70;;;1.08;;
11447;SDS011;43755;49.736;8.734;2022-10-15T12:21:31;1.00;;;1.00;;
11447;SDS011;43755;49.736;8.734;2022-10-15T12:23:38;1.05;;;1.00;;
11447;SDS011;43755;49.736;8.734;2022-10-15T12:25:42;1.25;;;1.13;;
11447;SDS011;43755;49.736;8.734;2022-10-15T12:27:46;0.93;;;0.70;;
11447;SDS011;43755;49.736;8.734;2022-10-15T12:32:36;1.02;;;1.00;;
11447;SDS011;43755;49.736;8.734;2022-10-15T12:34:40;1.40;;;1.00;;